createdAt,value
2022-11-21T00:04:58.123Z,98311.34
2022-11-21T00:10:01.180Z,98301.40
2022-11-21T00:15:05.444Z,98294.13
2022-11-21T00:20:08.798Z,98290.90
2022-11-21T00:25:12.831Z,98292.92
2022-11-21T00:30:15.945Z,98289.90
2022-11-21T00:35:19.114Z,98286.31
2022-11-21T00:40:22.134Z,98286.69
2022-11-21T00:45:25.052Z,98288.45
2022-11-21T00:50:27.974Z,98287.44
2022-11-21T00:55:31.160Z,98285.95
2022-11-21T01:00:34.270Z,98273.84
2022-11-21T01:05:37.307Z,98268.02
2022-11-21T01:10:40.222Z,98271.80
2022-11-21T01:15:43.140Z,98268.14
2022-11-21T01:20:46.080Z,98263.48
2022-11-21T01:25:48.980Z,98256.02
2022-11-21T01:30:51.931Z,98253.94
2022-11-21T01:35:54.907Z,98247.89
2022-11-21T01:40:57.784Z,98247.84
2022-11-21T01:46:04.180Z,98243.59
2022-11-21T01:51:18.559Z,98253.10
2022-11-21T01:56:22.511Z,98258.77
2022-11-21T02:01:25.529Z,98268.67
2022-11-21T02:06:29.577Z,98272.14
2022-11-21T02:11:35.319Z,98274.39
2022-11-21T02:16:38.983Z,98264.70
2022-11-21T02:21:49.868Z,98260.39
2022-11-21T02:26:52.792Z,98257.82
2022-11-21T02:32:00.225Z,98258.38
2022-11-21T02:37:03.496Z,98258.12
2022-11-21T02:42:18.572Z,98258.36
2022-11-21T02:47:23.695Z,98251.93
2022-11-21T02:52:27.268Z,98245.41
2022-11-21T02:57:30.179Z,98243.56
2022-11-21T03:02:33.105Z,98234.84
2022-11-21T03:07:36.142Z,98237.67
2022-11-21T03:12:41.128Z,98244.27
2022-11-21T03:17:44.111Z,98236.50
2022-11-21T03:22:47.095Z,98231.80
2022-11-21T03:27:54.498Z,98231.10
2022-11-21T03:32:58.020Z,98225.20
2022-11-21T03:38:01.144Z,98222.72
2022-11-21T03:43:08.024Z,98218.58
2022-11-21T03:48:10.934Z,98216.82
2022-11-21T03:53:13.877Z,98215.31
2022-11-21T03:58:16.777Z,98209.58
2022-11-21T04:03:19.694Z,98208.73
2022-11-21T04:08:22.727Z,98215.80
2022-11-21T04:13:25.831Z,98222.88
2022-11-21T04:18:29.020Z,98232.31
2022-11-21T04:23:32.367Z,98228.20
2022-11-21T04:28:35.405Z,98220.88
2022-11-21T04:33:39.343Z,98221.96
2022-11-21T04:38:42.420Z,98218.76
2022-11-21T04:43:45.359Z,98206.92
2022-11-21T04:48:48.344Z,98203.57
2022-11-21T04:53:51.252Z,98203.45
2022-11-21T04:58:54.280Z,98196.50
2022-11-21T05:03:57.224Z,98197.29
2022-11-21T05:09:00.181Z,98201.65
2022-11-21T05:14:03.337Z,98187.79
2022-11-21T05:19:07.700Z,98180.34
2022-11-21T05:24:10.881Z,98178.07
2022-11-21T05:29:13.963Z,98174.54
2022-11-21T05:34:16.969Z,98174.09
2022-11-21T05:39:19.996Z,98177.92
2022-11-21T05:44:22.950Z,98167.59
2022-11-21T05:49:25.978Z,98153.91
2022-11-21T05:54:29.175Z,98152.24
2022-11-21T05:59:32.294Z,98149.16
2022-11-21T06:04:35.324Z,98142.91
2022-11-21T06:09:38.403Z,98130.84
2022-11-21T06:14:41.316Z,98125.98
2022-11-21T06:19:44.280Z,98125.23
2022-11-21T06:24:47.232Z,98130.90
2022-11-21T06:29:50.177Z,98130.36
2022-11-21T06:34:53.186Z,98137.08
2022-11-21T06:39:56.217Z,98141.81
2022-11-21T06:44:59.130Z,98142.79
2022-11-21T06:50:02.147Z,98140.34
2022-11-21T06:55:05.506Z,98135.73
2022-11-21T07:00:08.975Z,98133.64
2022-11-21T07:05:11.998Z,98128.00
2022-11-21T07:10:15.023Z,98125.66
2022-11-21T07:15:17.920Z,98122.44
2022-11-21T07:20:20.873Z,98119.51
2022-11-21T07:25:23.884Z,98113.31
2022-11-21T07:30:27.584Z,98105.02
2022-11-21T07:35:30.561Z,98102.67
2022-11-21T07:40:34.861Z,98103.58
2022-11-21T07:45:38.474Z,98100.98
2022-11-21T07:50:41.468Z,98109.05
2022-11-21T07:55:44.391Z,98101.07
2022-11-21T08:00:47.356Z,98094.88
2022-11-21T08:05:50.290Z,98085.75
2022-11-21T08:10:53.207Z,98079.30
2022-11-21T08:15:56.113Z,98074.04
2022-11-21T08:21:01.559Z,98070.12
2022-11-21T08:26:04.601Z,98067.64
2022-11-21T08:31:07.568Z,98063.21
2022-11-21T08:36:10.778Z,98063.29
2022-11-21T08:41:32.238Z,98061.46
2022-11-21T08:46:37.383Z,98062.29
2022-11-21T08:51:40.304Z,98058.92
2022-11-21T08:56:44.110Z,98052.46
2022-11-21T09:01:47.140Z,98049.27
2022-11-21T09:06:50.174Z,98057.44
2022-11-21T09:11:53.108Z,98054.21
2022-11-21T09:17:15.613Z,98055.59
2022-11-21T09:22:18.571Z,98058.79
2022-11-21T09:27:21.514Z,98048.97
2022-11-21T09:32:24.487Z,98045.64
2022-11-21T09:37:27.751Z,98050.73
2022-11-21T09:43:07.600Z,98045.58
2022-11-21T09:48:28.022Z,98041.22
2022-11-21T09:53:37.790Z,98036.59
2022-11-21T09:58:57.948Z,98039.09
2022-11-21T10:04:02.427Z,98036.48
2022-11-21T10:09:25.595Z,98029.10
2022-11-21T10:14:44.985Z,98023.54
2022-11-21T10:20:09.545Z,98020.85
2022-11-21T10:25:26.919Z,98017.31
2022-11-21T10:30:30.699Z,98017.15
2022-11-21T10:35:44.238Z,98024.98
2022-11-21T10:41:07.675Z,98019.89
2022-11-21T10:46:10.802Z,98016.63
2022-11-21T10:51:23.242Z,98008.21
2022-11-21T10:56:28.036Z,98001.41
2022-11-21T11:01:34.141Z,98005.35
2022-11-21T11:06:38.595Z,98002.10
2022-11-21T11:11:41.538Z,97996.27
2022-11-21T11:16:47.044Z,97991.02
2022-11-21T11:21:50.904Z,97983.19
2022-11-21T11:27:02.855Z,97974.98
2022-11-21T11:32:21.588Z,97972.86
2022-11-21T11:37:47.255Z,97977.40
2022-11-21T11:43:29.935Z,97971.59
2022-11-21T11:49:03.271Z,97967.29
2022-11-21T11:54:11.333Z,97955.63
2022-11-21T11:59:22.819Z,97948.23
2022-11-21T12:04:33.997Z,97949.98
2022-11-21T12:09:57.498Z,97947.79
2022-11-21T12:15:21.726Z,97944.73
2022-11-21T12:20:31.711Z,97944.97
2022-11-21T12:25:41.107Z,97949.35
2022-11-21T12:31:00.199Z,97949.21
2022-11-21T12:36:31.409Z,97941.79
2022-11-21T12:42:12.843Z,97939.90
2022-11-21T12:48:18.038Z,97942.45
2022-11-21T12:53:58.147Z,97940.70
2022-11-21T12:59:04.564Z,97936.33
2022-11-21T13:04:17.453Z,97937.48
2022-11-21T13:09:23.480Z,97938.13
2022-11-21T13:14:48.217Z,97937.05
2022-11-21T13:20:17.390Z,97935.71
2022-11-21T13:25:32.381Z,97931.51
2022-11-21T13:30:46.037Z,97930.85
2022-11-21T13:35:51.530Z,97927.31
2022-11-21T13:41:13.227Z,97932.14
2022-11-21T13:46:56.334Z,97931.11
2022-11-21T13:52:07.073Z,97926.65
2022-11-21T13:57:10.228Z,97917.06
2022-11-21T14:02:51.911Z,97911.73
2022-11-21T14:08:20.790Z,97904.97
2022-11-21T14:13:32.837Z,97899.84
2022-11-21T14:18:38.343Z,97907.23
2022-11-21T14:23:44.444Z,97902.23
2022-11-21T14:28:48.104Z,97903.88
2022-11-21T14:33:57.285Z,97904.10
2022-11-21T14:39:36.889Z,97911.98
2022-11-21T14:44:29.498Z,97913.91
2022-11-21T14:49:32.532Z,97921.92
2022-11-21T14:55:06.088Z,97919.45
2022-11-21T15:00:36.044Z,97922.04
2022-11-21T15:06:08.804Z,97918.63
2022-11-21T15:11:03.477Z,97924.39
2022-11-21T15:16:06.611Z,97920.79
2022-11-21T15:21:15.960Z,97919.12
2022-11-21T15:26:33.158Z,97917.93
2022-11-21T15:31:36.228Z,97924.17
2022-11-21T15:36:39.289Z,97930.13
2022-11-21T15:41:42.369Z,97928.20
2022-11-21T15:46:47.120Z,97922.63
2022-11-21T15:52:06.536Z,97924.42
2022-11-21T15:57:16.743Z,97917.88
2022-11-21T16:02:20.410Z,97910.56
2022-11-21T16:07:23.471Z,97911.14
2022-11-21T16:12:26.352Z,97915.14
2022-11-21T16:17:29.352Z,97916.15
2022-11-21T16:22:32.438Z,97916.94
2022-11-21T16:27:35.435Z,97920.23
2022-11-21T16:32:38.486Z,97920.77
2022-11-21T16:37:41.501Z,97926.37
2022-11-21T16:42:44.501Z,97932.41
2022-11-21T16:47:48.956Z,97937.97
2022-11-21T16:52:54.328Z,97938.36
2022-11-21T16:58:00.265Z,97936.39
2022-11-21T17:03:03.700Z,97941.38
2022-11-21T17:08:07.095Z,97945.05
2022-11-21T17:13:10.041Z,97946.33
2022-11-21T17:18:12.997Z,97945.52
2022-11-21T17:23:15.955Z,97946.03
2022-11-21T17:28:18.861Z,97950.77
2022-11-21T17:33:22.032Z,97944.39
2022-11-21T17:38:24.987Z,97948.47
2022-11-21T17:43:28.968Z,97949.52
2022-11-21T17:48:34.151Z,97952.80
2022-11-21T17:53:40.053Z,97961.77
2022-11-21T17:58:43.317Z,97959.67
2022-11-21T18:03:57.521Z,97955.08
2022-11-21T18:09:00.714Z,97951.54
2022-11-21T18:14:04.986Z,97945.59
2022-11-21T18:19:12.979Z,97941.70
2022-11-21T18:24:16.112Z,97944.82
2022-11-21T18:34:42.079Z,97944.67
2022-11-21T18:39:45.023Z,97945.04
2022-11-21T18:44:48.103Z,97939.60
2022-11-21T18:49:51.121Z,97939.45
2022-11-21T18:54:54.078Z,97949.77
2022-11-21T18:59:57.105Z,97949.35
2022-11-21T19:05:00.157Z,97956.58
2022-11-21T19:10:35.191Z,97959.13
2022-11-21T19:15:26.386Z,97964.45
2022-11-21T19:20:29.319Z,97962.45
2022-11-21T19:25:32.922Z,97970.73
2022-11-21T19:30:36.468Z,97974.13
2022-11-21T19:35:40.386Z,97977.11
2022-11-21T19:41:02.195Z,97978.77
2022-11-21T19:46:05.330Z,97971.09
2022-11-21T19:51:09.046Z,97975.85
2022-11-21T19:56:14.123Z,97985.77
2022-11-21T20:01:20.814Z,97992.76
2022-11-21T20:06:32.874Z,97995.95
2022-11-21T20:11:38.427Z,98001.89
2022-11-21T20:16:46.875Z,98001.34
2022-11-21T20:21:50.321Z,97998.00
2022-11-21T20:26:53.939Z,98002.84
2022-11-21T20:31:59.357Z,98003.01
2022-11-21T20:37:03.300Z,98000.83
2022-11-21T20:42:06.929Z,97996.84
2022-11-21T20:47:10.372Z,97997.74
2022-11-21T20:57:36.257Z,98011.12
2022-11-21T21:02:39.299Z,98010.74
2022-11-21T21:07:42.340Z,98014.33
2022-11-21T21:12:48.603Z,98010.73
2022-11-21T21:17:51.764Z,98003.59
2022-11-21T21:22:55.756Z,98005.23
2022-11-21T21:27:58.812Z,98005.92
2022-11-21T21:33:01.937Z,98000.83
2022-11-21T21:38:08.795Z,98007.84
2022-11-21T21:43:12.106Z,98009.67
2022-11-21T21:48:15.411Z,98013.10
2022-11-21T21:53:18.382Z,98017.42
2022-11-21T21:58:21.355Z,98019.50
2022-11-21T22:03:24.304Z,98016.17
2022-11-21T22:08:27.373Z,98016.15
2022-11-21T22:13:30.350Z,98019.54
2022-11-21T22:18:33.293Z,98021.66
2022-11-21T22:23:36.199Z,98012.61
2022-11-21T22:28:40.443Z,98009.30
2022-11-21T22:33:44.392Z,98013.04
2022-11-21T22:38:47.941Z,98016.03
2022-11-21T22:43:56.273Z,98017.77
2022-11-21T22:48:59.587Z,98017.50
2022-11-21T22:54:02.696Z,98019.04
2022-11-21T22:59:05.826Z,98015.02
2022-11-21T23:04:12.057Z,98014.81
2022-11-21T23:09:19.385Z,98012.18
2022-11-21T23:14:22.349Z,98000.08
2022-11-21T23:19:25.344Z,97996.89
2022-11-21T23:24:28.234Z,97995.18
2022-11-21T23:29:31.596Z,97993.98
2022-11-21T23:34:34.756Z,97997.50
2022-11-21T23:39:37.650Z,97982.14
2022-11-21T23:44:40.568Z,97969.66
2022-11-21T23:49:47.394Z,97966.46
2022-11-21T23:54:53.007Z,97968.19
2022-11-21T23:59:56.194Z,97962.61
